createdAt,value
2022-11-16T00:02:22.500Z,12.38
2022-11-16T00:04:54.781Z,11.32
2022-11-16T00:07:24.402Z,12.88
2022-11-16T00:09:53.988Z,11.98
2022-11-16T00:12:23.606Z,12.73
2022-11-16T00:14:54.166Z,12.98
2022-11-16T00:17:23.653Z,12.35
2022-11-16T00:19:55.842Z,12.93
2022-11-16T00:22:25.407Z,13.70
2022-11-16T00:24:54.940Z,13.98
2022-11-16T00:27:24.482Z,15.00
2022-11-16T00:29:54.012Z,14.48
2022-11-16T00:32:23.689Z,13.75
2022-11-16T00:34:55.792Z,13.65
2022-11-16T00:37:25.398Z,14.65
2022-11-16T00:39:55.008Z,13.52
2022-11-16T00:42:24.550Z,15.35
2022-11-16T00:44:54.188Z,14.27
2022-11-16T00:47:23.974Z,13.90
2022-11-16T00:49:56.175Z,14.82
2022-11-16T00:52:25.738Z,14.13
2022-11-16T00:54:55.266Z,14.82
2022-11-16T00:57:24.862Z,14.55
2022-11-16T00:59:54.460Z,13.80
2022-11-16T01:02:23.995Z,14.73
2022-11-16T01:04:56.218Z,14.25
2022-11-16T01:07:25.720Z,13.75
2022-11-16T01:09:55.322Z,12.70
2022-11-16T01:12:24.884Z,12.90
2022-11-16T01:14:54.421Z,11.40
2022-11-16T01:17:24.054Z,10.80
2022-11-16T01:19:56.479Z,10.25
2022-11-16T01:22:26.068Z,10.95
2022-11-16T01:24:55.773Z,10.75
2022-11-16T01:27:25.902Z,10.38
2022-11-16T01:29:55.479Z,10.52
2022-11-16T01:32:25.233Z,10.48
2022-11-16T01:34:57.430Z,9.35
2022-11-16T01:37:26.984Z,10.25
2022-11-16T01:39:56.697Z,8.65
2022-11-16T01:42:28.738Z,9.82
2022-11-16T01:45:05.287Z,9.48
2022-11-16T01:47:35.150Z,8.57
2022-11-16T01:50:14.492Z,9.90
2022-11-16T01:52:49.037Z,9.80
2022-11-16T01:55:19.486Z,9.95
2022-11-16T01:57:50.799Z,9.77
2022-11-16T02:00:21.380Z,11.00
2022-11-16T02:02:51.038Z,10.20
2022-11-16T02:05:29.458Z,9.70
2022-11-16T02:08:25.712Z,9.82
2022-11-16T02:11:22.194Z,10.30
2022-11-16T02:14:04.651Z,9.80
2022-11-16T02:16:42.199Z,11.60
2022-11-16T02:19:38.808Z,10.43
2022-11-16T02:22:24.675Z,10.20
2022-11-16T02:25:03.396Z,10.15
2022-11-16T02:27:59.908Z,10.60
2022-11-16T02:30:32.277Z,8.63
2022-11-16T02:33:06.874Z,9.15
2022-11-16T02:35:41.816Z,8.15
2022-11-16T02:38:16.193Z,8.43
2022-11-16T02:40:49.386Z,8.10
2022-11-16T02:43:23.999Z,8.02
2022-11-16T02:45:59.847Z,6.75
2022-11-16T02:48:37.675Z,7.75
2022-11-16T02:51:09.608Z,7.25
2022-11-16T02:53:44.251Z,6.85
2022-11-16T02:56:16.123Z,5.82
2022-11-16T02:58:46.259Z,5.82
2022-11-16T03:01:26.362Z,6.10
2022-11-16T03:04:00.383Z,5.85
2022-11-16T03:06:34.135Z,5.50
2022-11-16T03:11:50.401Z,5.05
2022-11-16T03:14:25.477Z,4.90
2022-11-16T03:16:59.907Z,4.82
2022-11-16T03:19:42.914Z,4.80
2022-11-16T03:22:17.386Z,5.47
2022-11-16T03:24:47.328Z,5.00
2022-11-16T03:27:28.628Z,5.47
2022-11-16T03:30:05.728Z,4.70
2022-11-16T03:32:46.696Z,4.68
2022-11-16T03:35:22.437Z,5.22
2022-11-16T03:37:54.971Z,4.90
2022-11-16T03:40:28.154Z,5.55
2022-11-16T03:42:59.173Z,4.57
2022-11-16T03:45:29.474Z,5.35
2022-11-16T03:48:01.700Z,6.22
2022-11-16T03:50:32.494Z,4.97
2022-11-16T03:53:02.069Z,5.28
2022-11-16T03:55:31.677Z,4.72
2022-11-16T03:58:01.283Z,5.03
2022-11-16T04:00:30.945Z,5.00
2022-11-16T04:03:03.185Z,5.05
2022-11-16T04:05:45.163Z,4.90
2022-11-16T04:08:34.282Z,4.50
2022-11-16T04:11:16.535Z,4.85
2022-11-16T04:13:58.946Z,5.20
2022-11-16T04:16:40.976Z,5.10
2022-11-16T04:19:26.549Z,5.82
2022-11-16T04:22:11.469Z,6.60
2022-11-16T04:24:45.919Z,6.47
2022-11-16T04:27:30.856Z,6.57
2022-11-16T04:30:03.549Z,5.90
2022-11-16T04:32:45.904Z,5.85
2022-11-16T04:35:42.394Z,6.55
2022-11-16T04:38:11.977Z,6.35
2022-11-16T04:40:41.864Z,6.57
2022-11-16T04:43:09.317Z,5.90
2022-11-16T04:45:51.376Z,6.72
2022-11-16T04:48:22.232Z,6.47
2022-11-16T04:50:54.457Z,7.00
2022-11-16T04:53:27.139Z,6.28
2022-11-16T04:56:00.653Z,7.75
2022-11-16T04:58:30.751Z,7.40
2022-11-16T05:01:02.692Z,7.25
2022-11-16T05:03:32.354Z,6.72
2022-11-16T05:06:04.576Z,8.40
2022-11-16T05:08:34.424Z,7.85
2022-11-16T05:11:04.378Z,6.88
2022-11-16T05:13:33.920Z,6.10
2022-11-16T05:16:03.587Z,6.90
2022-11-16T05:18:33.598Z,6.90
2022-11-16T05:21:04.396Z,6.82
2022-11-16T05:23:46.481Z,7.47
2022-11-16T05:26:16.073Z,6.40
2022-11-16T05:28:45.775Z,6.20
2022-11-16T05:31:15.284Z,5.57
2022-11-16T05:33:45.204Z,7.38
2022-11-16T05:36:17.361Z,5.28
2022-11-16T05:38:46.849Z,5.38
2022-11-16T05:41:16.479Z,4.95
2022-11-16T05:43:46.073Z,4.82
2022-11-16T05:46:15.602Z,5.13
2022-11-16T05:48:45.101Z,5.35
2022-11-16T05:51:17.344Z,5.05
2022-11-16T05:53:47.052Z,4.60
2022-11-16T05:56:16.793Z,4.40
2022-11-16T05:58:47.137Z,4.55
2022-11-16T06:01:16.685Z,3.97
2022-11-16T06:03:46.178Z,3.80
2022-11-16T06:06:18.473Z,4.35
2022-11-16T06:08:48.091Z,3.42
2022-11-16T06:11:17.651Z,3.55
2022-11-16T06:13:47.270Z,3.65
2022-11-16T06:16:17.073Z,3.80
2022-11-16T06:18:48.671Z,3.53
2022-11-16T06:21:22.297Z,4.07
2022-11-16T06:23:51.881Z,4.13
2022-11-16T06:26:21.422Z,4.05
2022-11-16T06:28:51.112Z,4.45
2022-11-16T06:31:20.755Z,3.65
2022-11-16T06:33:51.680Z,3.58
2022-11-16T06:36:23.950Z,3.53
2022-11-16T06:38:53.601Z,3.75
2022-11-16T06:41:23.196Z,3.88
2022-11-16T06:43:52.875Z,3.92
2022-11-16T06:46:24.560Z,3.40
2022-11-16T06:48:54.284Z,3.97
2022-11-16T06:51:26.463Z,3.33
2022-11-16T06:56:39.719Z,2.97
2022-11-16T06:59:09.309Z,3.60
2022-11-16T07:01:39.156Z,3.47
2022-11-16T07:04:12.041Z,3.53
2022-11-16T07:06:44.414Z,3.23
2022-11-16T07:09:13.968Z,2.85
2022-11-16T07:11:43.608Z,3.42
2022-11-16T07:14:14.172Z,3.45
2022-11-16T07:16:43.669Z,3.67
2022-11-16T07:19:13.232Z,3.08
2022-11-16T07:21:45.504Z,2.90
2022-11-16T07:24:15.185Z,3.15
2022-11-16T07:26:44.713Z,4.50
2022-11-16T07:29:15.715Z,2.92
2022-11-16T07:31:45.262Z,3.30
2022-11-16T07:34:14.827Z,3.45
2022-11-16T07:36:47.337Z,3.58
2022-11-16T07:39:16.980Z,3.30
2022-11-16T07:41:47.107Z,3.45
2022-11-16T07:44:16.647Z,3.83
2022-11-16T07:46:47.861Z,4.35
2022-11-16T07:49:19.512Z,3.60
2022-11-16T07:51:51.706Z,3.63
2022-11-16T07:54:21.253Z,3.63
2022-11-16T07:56:51.275Z,4.10
2022-11-16T07:59:20.867Z,3.63
2022-11-16T08:01:50.919Z,3.83
2022-11-16T08:04:20.463Z,3.88
2022-11-16T08:06:52.937Z,4.10
2022-11-16T08:09:22.536Z,3.60
2022-11-16T08:11:52.188Z,3.40
2022-11-16T08:14:21.932Z,3.85
2022-11-16T08:16:51.464Z,5.20
2022-11-16T08:19:21.148Z,4.53
2022-11-16T08:21:53.346Z,4.60
2022-11-16T08:24:22.913Z,4.32
2022-11-16T08:26:52.488Z,4.30
2022-11-16T08:29:22.086Z,5.10
2022-11-16T08:31:51.659Z,4.63
2022-11-16T08:34:21.514Z,4.47
2022-11-16T08:36:53.696Z,4.45
2022-11-16T08:39:23.281Z,3.92
2022-11-16T08:41:53.754Z,3.92
2022-11-16T08:44:23.287Z,5.45
2022-11-16T08:46:52.823Z,5.03
2022-11-16T08:49:22.339Z,4.75
2022-11-16T08:51:54.561Z,4.75
2022-11-16T08:54:24.768Z,4.25
2022-11-16T08:56:54.286Z,4.88
2022-11-16T08:59:23.806Z,5.45
2022-11-16T09:01:53.362Z,5.15
2022-11-16T09:04:23.402Z,4.97
2022-11-16T09:06:55.667Z,5.00
2022-11-16T09:09:25.479Z,5.18
2022-11-16T09:11:57.592Z,5.00
2022-11-16T09:14:38.611Z,4.75
2022-11-16T09:17:08.757Z,6.63
2022-11-16T09:19:38.786Z,5.63
2022-11-16T09:22:11.379Z,5.13
2022-11-16T09:24:41.398Z,6.15
2022-11-16T09:27:11.574Z,4.97
2022-11-16T09:29:41.465Z,5.50
2022-11-16T09:32:11.716Z,5.90
2022-11-16T09:34:41.870Z,5.72
2022-11-16T09:37:15.407Z,5.80
2022-11-16T09:39:44.908Z,6.43
2022-11-16T09:42:25.982Z,8.05
2022-11-16T09:45:04.673Z,6.55
2022-11-16T09:47:49.239Z,6.88
2022-11-16T09:53:38.636Z,6.90
2022-11-16T09:56:15.450Z,6.75
2022-11-16T09:58:55.046Z,7.55
2022-11-16T10:01:29.419Z,6.70
2022-11-16T10:04:04.624Z,6.82
2022-11-16T10:06:48.872Z,6.88
2022-11-16T10:09:21.513Z,5.93
2022-11-16T10:12:17.054Z,6.32
2022-11-16T10:15:04.947Z,6.97
2022-11-16T10:17:48.650Z,5.80
2022-11-16T10:20:40.355Z,5.18
2022-11-16T10:23:18.548Z,5.88
2022-11-16T10:26:00.919Z,6.82
2022-11-16T10:28:52.860Z,5.38
2022-11-16T10:31:29.426Z,4.82
2022-11-16T10:34:01.595Z,5.53
2022-11-16T10:36:35.271Z,4.60
2022-11-16T10:41:43.191Z,4.40
2022-11-16T10:44:20.605Z,5.47
2022-11-16T10:46:59.074Z,5.38
2022-11-16T10:49:35.185Z,4.72
2022-11-16T10:52:05.351Z,4.00
2022-11-16T10:54:38.887Z,5.28
2022-11-16T10:57:17.427Z,4.75
2022-11-16T10:59:49.110Z,4.72
2022-11-16T11:02:37.441Z,4.70
2022-11-16T11:05:11.448Z,5.43
2022-11-16T11:07:42.532Z,5.78
2022-11-16T11:10:30.722Z,4.40
2022-11-16T11:13:20.516Z,5.32
2022-11-16T11:15:51.488Z,5.85
2022-11-16T11:18:29.780Z,5.05
2022-11-16T11:21:10.568Z,5.40
2022-11-16T11:23:46.809Z,6.32
2022-11-16T11:26:36.871Z,5.10
2022-11-16T11:29:23.200Z,5.07
2022-11-16T11:31:55.577Z,6.32
2022-11-16T11:34:28.171Z,4.97
2022-11-16T11:37:01.068Z,5.32
2022-11-16T11:42:26.475Z,5.32
2022-11-16T11:45:01.400Z,5.53
2022-11-16T11:47:59.687Z,5.55
2022-11-16T11:50:41.874Z,4.75
2022-11-16T11:53:23.630Z,4.93
2022-11-16T11:55:59.434Z,5.00
2022-11-16T11:58:32.907Z,4.55
2022-11-16T12:01:39.840Z,5.00
2022-11-16T12:04:31.471Z,4.63
2022-11-16T12:07:10.763Z,4.32
2022-11-16T12:09:49.139Z,4.88
2022-11-16T12:12:35.108Z,5.32
2022-11-16T12:15:23.709Z,4.00
2022-11-16T12:18:08.656Z,3.92
2022-11-16T12:20:50.677Z,4.47
2022-11-16T12:23:37.845Z,4.63
2022-11-16T12:26:14.698Z,3.15
2022-11-16T12:28:58.282Z,3.83
2022-11-16T12:31:56.340Z,5.10
2022-11-16T12:34:42.820Z,3.70
2022-11-16T12:37:19.324Z,3.65
2022-11-16T12:40:02.971Z,3.55
2022-11-16T12:42:41.370Z,3.25
2022-11-16T12:45:30.544Z,3.88
2022-11-16T12:48:30.706Z,3.80
2022-11-16T12:51:12.258Z,4.00
2022-11-16T12:53:56.349Z,3.75
2022-11-16T12:56:36.143Z,3.25
2022-11-16T12:59:24.976Z,3.13
2022-11-16T13:02:04.554Z,3.55
2022-11-16T13:04:41.124Z,3.88
2022-11-16T13:07:20.394Z,3.40
2022-11-16T13:09:54.074Z,3.65
2022-11-16T13:12:26.028Z,2.72
2022-11-16T13:14:58.634Z,3.28
2022-11-16T13:17:31.566Z,3.20
2022-11-16T13:20:21.469Z,2.83
2022-11-16T13:23:01.266Z,2.72
2022-11-16T13:25:39.340Z,2.90
2022-11-16T13:28:17.452Z,3.00
2022-11-16T13:30:54.659Z,3.08
2022-11-16T13:33:35.387Z,2.90
2022-11-16T13:36:37.928Z,2.67
2022-11-16T13:39:12.374Z,4.38
2022-11-16T13:41:45.895Z,2.90
2022-11-16T13:44:31.960Z,3.10
2022-11-16T13:47:06.479Z,2.80
2022-11-16T13:49:40.957Z,2.47
2022-11-16T13:52:23.543Z,2.35
2022-11-16T13:57:29.726Z,2.85
2022-11-16T14:00:13.298Z,2.75
2022-11-16T14:02:44.523Z,3.17
2022-11-16T14:05:18.304Z,2.97
2022-11-16T14:10:58.438Z,2.83
2022-11-16T14:13:47.315Z,2.85
2022-11-16T14:16:56.620Z,3.13
2022-11-16T14:19:55.295Z,2.88
2022-11-16T14:22:46.061Z,3.00
2022-11-16T14:25:32.350Z,3.40
2022-11-16T14:28:24.977Z,3.13
2022-11-16T14:31:12.663Z,3.17
2022-11-16T14:33:42.486Z,3.08
2022-11-16T14:36:13.644Z,2.55
2022-11-16T14:38:45.505Z,3.40
2022-11-16T14:41:22.784Z,3.53
2022-11-16T14:43:54.745Z,3.28
2022-11-16T14:46:30.719Z,3.55
2022-11-16T14:49:01.965Z,3.10
2022-11-16T14:51:34.835Z,3.65
2022-11-16T14:54:08.343Z,3.60
2022-11-16T14:56:38.532Z,3.22
2022-11-16T14:59:08.626Z,3.35
2022-11-16T15:01:42.769Z,3.10
2022-11-16T15:04:14.771Z,3.65
2022-11-16T15:06:48.621Z,3.10
2022-11-16T15:09:25.145Z,2.50
2022-11-16T15:12:07.679Z,2.95
2022-11-16T15:14:42.487Z,2.85
2022-11-16T15:17:18.991Z,2.75
2022-11-16T15:19:56.955Z,2.88
2022-11-16T15:22:30.525Z,2.78
2022-11-16T15:25:02.121Z,2.55
2022-11-16T15:27:39.302Z,3.10
2022-11-16T15:30:19.773Z,2.85
2022-11-16T15:32:53.577Z,3.22
2022-11-16T15:35:25.653Z,2.80
2022-11-16T15:38:06.167Z,3.70
2022-11-16T15:40:37.201Z,2.92
2022-11-16T15:43:09.078Z,2.95
2022-11-16T15:45:40.345Z,2.60
2022-11-16T15:48:18.677Z,3.10
2022-11-16T15:51:04.270Z,3.03
2022-11-16T15:53:40.381Z,4.32
2022-11-16T15:56:13.607Z,2.60
2022-11-16T15:58:44.921Z,2.85
2022-11-16T16:01:16.055Z,3.47
2022-11-16T16:03:57.974Z,3.92
2022-11-16T16:06:50.318Z,3.75
2022-11-16T16:09:30.688Z,7.28
2022-11-16T16:12:19.719Z,4.57
2022-11-16T16:14:50.439Z,3.65
2022-11-16T16:17:27.006Z,3.42
2022-11-16T16:20:00.903Z,4.03
2022-11-16T16:22:33.323Z,3.85
2022-11-16T16:25:03.541Z,4.65
2022-11-16T16:27:34.960Z,4.40
2022-11-16T16:30:08.663Z,4.25
2022-11-16T16:35:19.493Z,4.68
2022-11-16T16:37:52.097Z,6.43
2022-11-16T16:40:21.986Z,6.65
2022-11-16T16:42:53.266Z,4.55
2022-11-16T16:45:27.067Z,6.28
2022-11-16T16:50:28.477Z,5.72
2022-11-16T16:52:58.146Z,7.10
2022-11-16T16:55:28.937Z,8.00
2022-11-16T16:57:59.529Z,10.02
2022-11-16T17:00:29.394Z,7.60
2022-11-16T17:02:58.944Z,8.73
2022-11-16T17:05:34.012Z,11.38
2022-11-16T17:08:04.300Z,15.18
2022-11-16T17:10:33.894Z,9.77
2022-11-16T17:13:04.211Z,13.45
2022-11-16T17:15:33.782Z,7.07
2022-11-16T17:18:03.306Z,4.43
2022-11-16T17:20:35.613Z,4.70
2022-11-16T17:23:05.151Z,6.90
2022-11-16T17:25:35.704Z,5.85
2022-11-16T17:28:05.367Z,4.60
2022-11-16T17:30:34.882Z,4.60
2022-11-16T17:33:04.476Z,5.38
2022-11-16T17:35:36.630Z,5.93
2022-11-16T17:38:06.279Z,6.47
2022-11-16T17:40:35.942Z,6.47
2022-11-16T17:43:05.554Z,5.65
2022-11-16T17:45:35.099Z,4.47
2022-11-16T17:48:04.659Z,5.32
2022-11-16T17:50:37.012Z,4.72
2022-11-16T17:53:06.596Z,5.57
2022-11-16T17:55:37.146Z,6.75
2022-11-16T17:58:06.873Z,4.57
2022-11-16T18:00:36.431Z,5.80
2022-11-16T18:03:06.133Z,5.68
2022-11-16T18:05:38.547Z,5.50
2022-11-16T18:08:08.441Z,5.60
2022-11-16T18:10:38.855Z,5.75
2022-11-16T18:13:08.996Z,4.88
2022-11-16T18:15:42.359Z,5.78
2022-11-16T18:20:44.599Z,7.75
2022-11-16T18:23:14.313Z,6.75
2022-11-16T18:25:43.884Z,5.63
2022-11-16T18:28:13.382Z,5.63
2022-11-16T18:30:42.863Z,7.97
2022-11-16T18:33:12.366Z,6.05
2022-11-16T18:35:44.715Z,5.28
2022-11-16T18:38:14.533Z,6.25
2022-11-16T18:40:44.502Z,6.50
2022-11-16T18:43:15.613Z,8.05
2022-11-16T18:45:45.218Z,5.20
2022-11-16T18:48:14.740Z,4.32
2022-11-16T18:50:46.938Z,4.55
2022-11-16T18:53:16.456Z,4.07
2022-11-16T18:55:46.072Z,4.68
2022-11-16T18:58:43.512Z,3.75
2022-11-16T19:01:06.203Z,4.47
2022-11-16T19:03:36.650Z,4.72
2022-11-16T19:06:12.373Z,4.90
2022-11-16T19:08:43.041Z,5.10
2022-11-16T19:11:14.315Z,4.63
2022-11-16T19:13:45.778Z,4.35
2022-11-16T19:16:16.495Z,4.78
2022-11-16T19:18:46.018Z,5.03
2022-11-16T19:21:21.956Z,5.03
2022-11-16T19:23:53.282Z,5.13
2022-11-16T19:26:24.633Z,4.85
2022-11-16T19:28:55.478Z,4.80
2022-11-16T19:31:27.090Z,4.80
2022-11-16T19:33:57.708Z,4.40
2022-11-16T19:36:31.363Z,4.43
2022-11-16T19:39:00.994Z,4.15
2022-11-16T19:41:31.185Z,4.85
2022-11-16T19:44:02.793Z,5.53
2022-11-16T19:46:35.896Z,6.18
2022-11-16T19:49:05.726Z,6.13
2022-11-16T19:51:38.564Z,5.15
2022-11-16T19:54:09.369Z,4.93
2022-11-16T19:56:38.906Z,5.90
2022-11-16T19:59:08.489Z,5.25
2022-11-16T20:01:38.473Z,5.35
2022-11-16T20:04:09.268Z,5.20
2022-11-16T20:06:41.854Z,5.57
2022-11-16T20:09:13.928Z,5.28
2022-11-16T20:11:44.157Z,4.70
2022-11-16T20:14:15.027Z,5.13
2022-11-16T20:16:49.847Z,5.35
2022-11-16T20:19:20.888Z,5.82
2022-11-16T20:21:53.560Z,5.30
2022-11-16T20:24:23.314Z,5.78
2022-11-16T20:26:52.953Z,4.50
2022-11-16T20:29:22.734Z,5.57
2022-11-16T20:31:52.319Z,4.47
2022-11-16T20:34:22.307Z,6.43
2022-11-16T20:36:54.491Z,4.82
2022-11-16T20:39:24.338Z,5.75
2022-11-16T20:41:53.875Z,3.55
2022-11-16T20:44:23.772Z,5.95
2022-11-16T20:46:54.160Z,5.45
2022-11-16T20:49:23.899Z,6.15
2022-11-16T20:51:56.017Z,3.83
2022-11-16T20:54:25.685Z,5.13
2022-11-16T20:56:55.327Z,3.95
2022-11-16T20:59:25.213Z,4.30
2022-11-16T21:01:57.928Z,4.72
2022-11-16T21:04:27.528Z,4.03
2022-11-16T21:06:59.754Z,4.05
2022-11-16T21:09:49.345Z,3.67
2022-11-16T21:12:31.345Z,3.22
2022-11-16T21:15:00.904Z,4.05
2022-11-16T21:17:32.920Z,4.40
2022-11-16T21:20:25.688Z,4.40
2022-11-16T21:22:54.665Z,3.45
2022-11-16T21:25:24.279Z,4.20
2022-11-16T21:27:53.809Z,5.68
2022-11-16T21:30:23.417Z,3.75
2022-11-16T21:32:52.948Z,5.85
2022-11-16T21:35:26.257Z,4.90
2022-11-16T21:37:58.413Z,3.88
2022-11-16T21:40:27.949Z,4.22
2022-11-16T21:42:57.446Z,4.80
2022-11-16T21:45:26.956Z,3.50
2022-11-16T21:47:56.520Z,2.92
2022-11-16T21:50:31.776Z,4.85
2022-11-16T21:53:04.649Z,3.63
2022-11-16T21:55:34.250Z,3.55
2022-11-16T21:58:07.623Z,3.83
2022-11-16T22:00:37.292Z,3.42
2022-11-16T22:03:07.314Z,3.80
2022-11-16T22:05:49.346Z,3.60
2022-11-16T22:08:21.550Z,3.58
2022-11-16T22:10:53.456Z,3.17
2022-11-16T22:13:23.219Z,3.72
2022-11-16T22:15:52.723Z,3.47
2022-11-16T22:18:22.269Z,3.70
2022-11-16T22:20:52.247Z,3.88
2022-11-16T22:23:24.376Z,3.35
2022-11-16T22:25:54.249Z,3.85
2022-11-16T22:28:24.273Z,3.83
2022-11-16T22:31:02.004Z,3.88
2022-11-16T22:33:32.329Z,5.00
2022-11-16T22:36:02.294Z,4.70
2022-11-16T22:38:34.664Z,3.53
2022-11-16T22:41:04.329Z,3.95
2022-11-16T22:43:35.951Z,3.47
2022-11-16T22:46:07.720Z,3.80
2022-11-16T22:48:38.944Z,3.33
2022-11-16T22:51:14.814Z,3.92
2022-11-16T22:53:46.989Z,3.75
2022-11-16T22:56:16.578Z,3.22
2022-11-16T22:58:46.133Z,3.63
2022-11-16T23:01:15.656Z,4.40
2022-11-16T23:03:45.308Z,4.00
2022-11-16T23:06:15.374Z,3.72
2022-11-16T23:08:50.840Z,4.30
2022-11-16T23:11:34.405Z,3.10
2022-11-16T23:14:17.134Z,5.15
2022-11-16T23:16:47.000Z,4.07
2022-11-16T23:19:31.038Z,4.18
2022-11-16T23:24:58.587Z,3.05
2022-11-16T23:27:33.361Z,4.05
2022-11-16T23:30:11.928Z,4.32
2022-11-16T23:32:42.234Z,3.85
2022-11-16T23:35:12.773Z,3.85
2022-11-16T23:37:53.559Z,3.65
2022-11-16T23:40:27.109Z,4.00
2022-11-16T23:43:09.951Z,3.72
2022-11-16T23:45:39.549Z,3.35
2022-11-16T23:48:10.479Z,3.13
2022-11-16T23:50:41.062Z,5.20
2022-11-16T23:53:12.282Z,2.83
2022-11-16T23:55:44.753Z,2.70
2022-11-16T23:58:16.528Z,2.97
